Gao Qiang — VRVQ8 — position and weather

sailwx.info

Track history (hours):
 
Tides and Currents Weather Stations Pressure Air Temp Water Temp Dewpoint Dewpoint Depression Visibility Wind Speed Wind Dir Waves Ship Positions

Gao Qiang

Last reported at 2017-Aug-12 15:30 UTC. Time now 2017-Nov-19 04:46 UTC.
Position N 32°02' E 120°24'.
Warning: this ship's position is months out of date.

Length 186 m; draft 6.4 m.

Type: Cargo ship. MMSI: 477611000.

Date/timePositionNaut miles runAvg speedWind from/ knotsBaromVisibWave heightAir tempDewpointWater temp
2017-Aug-12 15:30N 32°02' E 120°24'5 7.6
2017-Aug-12 14:53N 32°04' E 120°29'4 8.1
2017-Aug-12 14:21N 32°02' E 120°34'27 8.3
2017-Aug-12 11:07N 31°47' E 120°60'1 7.0
2017-Aug-12 11:00N 31°47' E 121°01'510.2
2017-Aug-12 10:28N 31°44' E 121°06'510.8
2017-Aug-12 10:00N 31°41' E 121°11'612.4
2017-Aug-12 09:30N 31°37' E 121°16'612.4
2017-Aug-12 09:00N 31°32' E 121°21'510.4
2017-Aug-12 08:30N 31°30' E 121°26'510.1
2017-Aug-12 08:00N 31°26' E 121°30'4 8.0
2017-Aug-12 07:30N 31°24' E 121°34'611.2
2017-Aug-12 07:00N 31°21' E 121°40'510.5
2017-Aug-12 06:30N 31°17' E 121°44'714.9
2017-Aug-12 06:00N 31°12' E 121°50'714.9
2017-Aug-12 05:30N 31°07' E 121°57'612.4
2017-Aug-12 05:00N 31°05' E 122°03'713.6
2017-Aug-12 04:30N 31°03' E 122°11'5 9.6
2017-Aug-12 04:00N 31°03' E 122°17'4 8.6
2017-Aug-12 03:30N 31°02' E 122°22'5 9.1
2017-Aug-12 03:00N 31°01' E 122°27'611.0
2017-Aug-12 02:30N 30°60' E 122°33'4 8.9
2017-Aug-12 01:59N 31°00' E 122°38'0 0.7
2017-Aug-12 01:23N 31°01' E 122°38'0 0.0
2017-Aug-11 23:23N 31°01' E 122°38'0 0.0
2017-Aug-11 22:59N 31°01' E 122°38'0 0.0
2017-Aug-11 21:20N 31°01' E 122°38'0 0.0
2017-Aug-11 20:59N 31°01' E 122°38'0 0.1
2017-Aug-11 20:11N 31°01' E 122°38'0 0.0
2017-Aug-11 19:56N 31°01' E 122°38'0 0.0
2017-Aug-11 15:17N 31°01' E 122°38'0 0.1
2017-Aug-11 14:50N 31°01' E 122°38'0 0.1
2017-Aug-11 14:00N 31°01' E 122°38'0 0.1
2017-Aug-11 13:23N 31°01' E 122°38'0 0.0
2017-Aug-11 12:47N 31°01' E 122°38'0 0.1
2017-Aug-11 12:23N 31°01' E 122°38'0 0.1
2017-Aug-11 11:56N 31°01' E 122°38'0 0.0
2017-Aug-11 11:29N 31°01' E 122°38'0 0.1
2017-Aug-11 11:00N 31°01' E 122°38'0 0.0
2017-Aug-11 10:23N 31°01' E 122°38'0 0.0
2017-Aug-11 09:51N 31°01' E 122°38'0 0.0
2017-Aug-11 09:23N 31°01' E 122°38'0 0.1
2017-Aug-11 08:56N 31°01' E 122°38'0 0.1
2017-Aug-11 08:23N 31°01' E 122°38'0 0.1
2017-Aug-11 07:47N 31°01' E 122°38'0 0.0
2017-Aug-11 07:23N 31°01' E 122°38'0 0.1
2017-Aug-11 06:59N 31°01' E 122°38'0 0.1
2017-Aug-11 06:29N 31°01' E 122°38'0 0.1
2017-Aug-11 05:54N 31°01' E 122°38'0 0.1
2017-Aug-11 04:50N 31°01' E 122°38'0 0.1
2017-Aug-11 04:27N 31°01' E 122°38'0 0.1
2017-Aug-11 03:53N 31°01' E 122°38'0 0.3
2017-Aug-11 03:26N 31°01' E 122°38'2 5.6
2017-Aug-11 03:00N 31°03' E 122°39'611.7
2017-Aug-11 02:31N 31°08' E 122°43'611.5
2017-Aug-11 02:00N 31°14' E 122°43'611.9
2017-Aug-11 01:30N 31°19' E 122°43'612.2
2017-Aug-11 01:00N 31°25' E 122°42'612.3
2017-Aug-11 00:30N 31°31' E 122°39'612.7
2017-Aug-11 00:00N 31°37' E 122°36'611.9
2017-Aug-10 23:30N 31°43' E 122°34'612.6
2017-Aug-10 23:00N 31°49' E 122°32'713.3
2017-Aug-10 22:30N 31°55' E 122°30'713.1
2017-Aug-10 22:00N 32°01' E 122°28'612.6
2017-Aug-10 21:30N 32°08' E 122°27'612.2
2017-Aug-10 20:59N 32°14' E 122°25'611.8
2017-Aug-10 20:30N 32°19' E 122°25'611.2
2017-Aug-10 20:00N 32°25' E 122°24'2910.4
2017-Aug-10 17:14N 32°54' E 122°22'310.8
2017-Aug-10 17:00N 32°56' E 122°22'610.7
2017-Aug-10 16:28N 33°02' E 122°21'15810.6
2017-Aug-10 01:33N 34°59' E 120°12'713.1
2017-Aug-10 01:02N 34°58' E 120°04'111.9
2017-Aug-10 00:57N 34°58' E 120°03'512.4
2017-Aug-10 00:30N 34°57' E 119°56'611.9
2017-Aug-09 23:59N 34°56' E 119°48'9 0.4
2017-Aug-08 22:57N 34°50' E 119°40'  
Track history (hours):
 
Tides and Currents Weather Stations Pressure Air Temp Water Temp Dewpoint Dewpoint Depression Visibility Wind Speed Wind Dir Waves Ship Positions

Gao Qiang

Last reported at 2017-Aug-12 15:30 UTC. Time now 2017-Nov-19 04:46 UTC.
Position N 32°02' E 120°24'.
Warning: this ship's position is months out of date.

Length 186 m; draft 6.4 m.

Type: Cargo ship. MMSI: 477611000.

Date/timePositionNaut miles runAvg speedWind from/ knotsBaromVisibWave heightAir tempDewpointWater temp
2017-Aug-12 15:30N 32°02' E 120°24'5 7.6
2017-Aug-12 14:53N 32°04' E 120°29'4 8.1
2017-Aug-12 14:21N 32°02' E 120°34'27 8.3
2017-Aug-12 11:07N 31°47' E 120°60'1 7.0
2017-Aug-12 11:00N 31°47' E 121°01'510.2
2017-Aug-12 10:28N 31°44' E 121°06'510.8
2017-Aug-12 10:00N 31°41' E 121°11'612.4
2017-Aug-12 09:30N 31°37' E 121°16'612.4
2017-Aug-12 09:00N 31°32' E 121°21'510.4
2017-Aug-12 08:30N 31°30' E 121°26'510.1
2017-Aug-12 08:00N 31°26' E 121°30'4 8.0
2017-Aug-12 07:30N 31°24' E 121°34'611.2
2017-Aug-12 07:00N 31°21' E 121°40'510.5
2017-Aug-12 06:30N 31°17' E 121°44'714.9
2017-Aug-12 06:00N 31°12' E 121°50'714.9
2017-Aug-12 05:30N 31°07' E 121°57'612.4
2017-Aug-12 05:00N 31°05' E 122°03'713.6
2017-Aug-12 04:30N 31°03' E 122°11'5 9.6
2017-Aug-12 04:00N 31°03' E 122°17'4 8.6
2017-Aug-12 03:30N 31°02' E 122°22'5 9.1
2017-Aug-12 03:00N 31°01' E 122°27'611.0
2017-Aug-12 02:30N 30°60' E 122°33'4 8.9
2017-Aug-12 01:59N 31°00' E 122°38'0 0.7
2017-Aug-12 01:23N 31°01' E 122°38'0 0.0
2017-Aug-11 23:23N 31°01' E 122°38'0 0.0
2017-Aug-11 22:59N 31°01' E 122°38'0 0.0
2017-Aug-11 21:20N 31°01' E 122°38'0 0.0
2017-Aug-11 20:59N 31°01' E 122°38'0 0.1
2017-Aug-11 20:11N 31°01' E 122°38'0 0.0
2017-Aug-11 19:56N 31°01' E 122°38'0 0.0
2017-Aug-11 15:17N 31°01' E 122°38'0 0.1
2017-Aug-11 14:50N 31°01' E 122°38'0 0.1
2017-Aug-11 14:00N 31°01' E 122°38'0 0.1
2017-Aug-11 13:23N 31°01' E 122°38'0 0.0
2017-Aug-11 12:47N 31°01' E 122°38'0 0.1
2017-Aug-11 12:23N 31°01' E 122°38'0 0.1
2017-Aug-11 11:56N 31°01' E 122°38'0 0.0
2017-Aug-11 11:29N 31°01' E 122°38'0 0.1
2017-Aug-11 11:00N 31°01' E 122°38'0 0.0
2017-Aug-11 10:23N 31°01' E 122°38'0 0.0
2017-Aug-11 09:51N 31°01' E 122°38'0 0.0
2017-Aug-11 09:23N 31°01' E 122°38'0 0.1
2017-Aug-11 08:56N 31°01' E 122°38'0 0.1
2017-Aug-11 08:23N 31°01' E 122°38'0 0.1
2017-Aug-11 07:47N 31°01' E 122°38'0 0.0
2017-Aug-11 07:23N 31°01' E 122°38'0 0.1
2017-Aug-11 06:59N 31°01' E 122°38'0 0.1
2017-Aug-11 06:29N 31°01' E 122°38'0 0.1
2017-Aug-11 05:54N 31°01' E 122°38'0 0.1
2017-Aug-11 04:50N 31°01' E 122°38'0 0.1
2017-Aug-11 04:27N 31°01' E 122°38'0 0.1
2017-Aug-11 03:53N 31°01' E 122°38'0 0.3
2017-Aug-11 03:26N 31°01' E 122°38'2 5.6
2017-Aug-11 03:00N 31°03' E 122°39'611.7
2017-Aug-11 02:31N 31°08' E 122°43'611.5
2017-Aug-11 02:00N 31°14' E 122°43'611.9
2017-Aug-11 01:30N 31°19' E 122°43'612.2
2017-Aug-11 01:00N 31°25' E 122°42'612.3
2017-Aug-11 00:30N 31°31' E 122°39'612.7
2017-Aug-11 00:00N 31°37' E 122°36'611.9
2017-Aug-10 23:30N 31°43' E 122°34'612.6
2017-Aug-10 23:00N 31°49' E 122°32'713.3
2017-Aug-10 22:30N 31°55' E 122°30'713.1
2017-Aug-10 22:00N 32°01' E 122°28'612.6
2017-Aug-10 21:30N 32°08' E 122°27'612.2
2017-Aug-10 20:59N 32°14' E 122°25'611.8
2017-Aug-10 20:30N 32°19' E 122°25'611.2
2017-Aug-10 20:00N 32°25' E 122°24'2910.4
2017-Aug-10 17:14N 32°54' E 122°22'310.8
2017-Aug-10 17:00N 32°56' E 122°22'610.7
2017-Aug-10 16:28N 33°02' E 122°21'15810.6
2017-Aug-10 01:33N 34°59' E 120°12'713.1
2017-Aug-10 01:02N 34°58' E 120°04'111.9
2017-Aug-10 00:57N 34°58' E 120°03'512.4
2017-Aug-10 00:30N 34°57' E 119°56'611.9
2017-Aug-09 23:59N 34°56' E 119°48'9 0.4
2017-Aug-08 22:57N 34°50' E 119°40'  

Dump ship's entire track history